Airfield :







YOU CAN JOIN US ON...

 
LOGIN :

Register | Disclaimer

   EN    FR    IT 

 









Legend :    VFR   Marginal VFR   IFR   Intensive IFR   Very Intensive IFR
Visi :
Ceiling :
>= 8 km
>= 3000ft
5 to 8 km
1000 to 3000 ft
1500m to 5 km
500 to 1000 ft
800 to 1500m
200 to 500 ft
< 800m
< 200 ft
Symbols :   Thunderstorms  Fog  Heavy snow  Heavy precipitations  Wind > 20 kt






- Airport Elevation : 192 ft
- IATA code : BGR


KBGR - Bangor International

CURRENT METAR :
  • 010453Z 01007KT 10SM BKN035 OVC075 02/M05 A2999 RMK AO2 SLP157 T00171050 400721022 $

EXPIRED METARs :
  • 010353Z 03005KT 10SM BKN085 02/M06 A3001 RMK AO2 SLP163 T00171056
  • 010253Z 05005KT 10SM BKN065 02/M06 A3002 RMK AO2 SLP166 T00221056 51001

TAF KBGR
Valid from the 01 at 06:00 until the 02 at 06:00 UTC


010526Z 0106/0206 01005KT P6SM BKN035
FM010900 01006KT P6SM BKN025
FM011200 01007KT P6SM OVC008
FM011800 01006KT P6SM VCSH OVC010
FM020500 36009KT 5SM -SHRA OVC006



MET'MAP, your aeronautical weather chart ! - Copyright ORBIFLY December 2007 - Disclaimer

ORBIFLY MET'MAP TEAM :

Programming & Development : Alexandra Zaïnal
Concept & original design : Baudouin d'Aumeries
Assistance for programming : Marc-Olivier Méhu
Technical & hardware support : Manuel Goepfert

Contact : metmap@orbifly.com




SOURCES & CREDITS :

   NOAA